createdAt,value
2022-08-17T00:01:27.181Z,97167.53
2022-08-17T00:03:54.931Z,97164.00
2022-08-17T00:06:24.540Z,97172.63
2022-08-17T00:08:54.997Z,97167.53
2022-08-17T00:11:25.341Z,97153.41
2022-08-17T00:13:56.228Z,97180.66
2022-08-17T00:16:56.618Z,97184.03
2022-08-17T00:19:15.851Z,97180.50
2022-08-17T00:22:32.590Z,97177.66
2022-08-17T00:24:34.278Z,97177.78
2022-08-17T00:27:01.470Z,97170.44
2022-08-17T00:29:28.639Z,97172.69
2022-08-17T00:31:55.816Z,97165.81
2022-08-17T00:34:22.995Z,97173.50
2022-08-17T00:36:50.209Z,97169.63
2022-08-17T00:39:17.363Z,97178.59
2022-08-17T00:41:45.956Z,97173.28
2022-08-17T00:44:13.177Z,97165.91
2022-08-17T00:46:42.702Z,97177.63
2022-08-17T00:49:12.777Z,97174.56
2022-08-17T00:51:44.270Z,97171.03
2022-08-17T00:54:14.647Z,97179.19
2022-08-17T00:56:46.265Z,97175.53
2022-08-17T00:59:20.963Z,97174.91
2022-08-17T01:01:50.083Z,97167.38
2022-08-17T01:04:19.665Z,97174.56
2022-08-17T01:06:48.429Z,97167.19
2022-08-17T01:09:17.060Z,97160.56
2022-08-17T01:11:45.392Z,97155.75
2022-08-17T01:14:12.811Z,97159.41
2022-08-17T01:16:41.456Z,97160.22
2022-08-17T01:19:16.315Z,97161.34
2022-08-17T01:21:50.234Z,97159.91
2022-08-17T01:24:19.063Z,97161.00
2022-08-17T01:26:47.135Z,97153.66
2022-08-17T01:29:16.617Z,97144.41
2022-08-17T01:31:47.610Z,97159.09
2022-08-17T01:34:16.230Z,97169.63
2022-08-17T01:36:45.787Z,97163.88
2022-08-17T01:39:22.449Z,97164.66
2022-08-17T01:41:52.733Z,97169.63
2022-08-17T01:44:21.834Z,97165.44
2022-08-17T01:46:49.236Z,97168.84
2022-08-17T01:49:16.458Z,97170.44
2022-08-17T01:51:43.818Z,97166.13
2022-08-17T01:54:14.879Z,97167.25
2022-08-17T01:56:47.713Z,97165.00
2022-08-17T01:59:15.537Z,97167.38
2022-08-17T02:01:44.312Z,97166.31
2022-08-17T02:04:12.768Z,97157.53
2022-08-17T02:06:52.618Z,97157.09
2022-08-17T02:09:25.123Z,97149.25
2022-08-17T02:11:56.359Z,97158.00
2022-08-17T02:14:24.514Z,97164.59
2022-08-17T02:16:52.583Z,97156.09
2022-08-17T02:19:20.434Z,97153.84
2022-08-17T02:21:49.792Z,97153.84
2022-08-17T02:24:58.390Z,97144.69
2022-08-17T02:27:09.159Z,97142.91
2022-08-17T02:29:36.358Z,97139.88
2022-08-17T02:32:04.270Z,97137.16
2022-08-17T02:34:31.446Z,97134.28
2022-08-17T02:36:58.656Z,97131.56
2022-08-17T02:39:25.923Z,97134.44
2022-08-17T02:42:00.913Z,97132.34
2022-08-17T02:44:39.481Z,97133.97
2022-08-17T02:47:09.132Z,97137.47
2022-08-17T02:49:37.259Z,97136.06
2022-08-17T02:52:05.870Z,97124.28
2022-08-17T02:54:40.129Z,97141.22
2022-08-17T02:57:09.727Z,97142.38
2022-08-17T02:59:38.608Z,97141.22
2022-08-17T03:02:07.282Z,97136.63
2022-08-17T03:04:35.132Z,97135.47
2022-08-17T03:07:03.336Z,97128.78
2022-08-17T03:09:30.995Z,97128.91
2022-08-17T03:12:04.612Z,97126.66
2022-08-17T03:14:31.876Z,97123.13
2022-08-17T03:17:00.398Z,97122.03
2022-08-17T03:19:27.563Z,97118.84
2022-08-17T03:21:55.049Z,97117.84
2022-08-17T03:24:28.595Z,97116.84
2022-08-17T03:26:56.246Z,97121.47
2022-08-17T03:29:23.438Z,97123.72
2022-08-17T03:31:50.667Z,97127.47
2022-08-17T03:34:19.329Z,97122.81
2022-08-17T03:36:46.479Z,97117.69
2022-08-17T03:39:13.733Z,97126.19
2022-08-17T03:41:40.887Z,97130.19
2022-08-17T03:44:08.059Z,97127.13
2022-08-17T03:46:35.684Z,97129.09
2022-08-17T03:49:05.576Z,97130.09
2022-08-17T03:51:34.167Z,97127.03
2022-08-17T03:54:01.676Z,97124.66
2022-08-17T03:56:29.001Z,97120.94
2022-08-17T03:58:56.181Z,97126.38
2022-08-17T04:01:23.532Z,97115.97
2022-08-17T04:03:50.790Z,97123.03
2022-08-17T04:06:20.985Z,97123.81
2022-08-17T04:08:49.508Z,97122.16
2022-08-17T04:11:16.691Z,97125.25
2022-08-17T04:13:43.874Z,97129.56
2022-08-17T04:16:11.059Z,97128.75
2022-08-17T04:18:39.456Z,97132.00
2022-08-17T04:21:09.389Z,97132.16
2022-08-17T04:23:36.547Z,97134.78
2022-08-17T04:26:05.445Z,97144.72
2022-08-17T04:28:32.609Z,97136.94
2022-08-17T04:30:59.808Z,97141.28
2022-08-17T04:33:29.494Z,97139.50
2022-08-17T04:35:58.639Z,97147.34
2022-08-17T04:38:28.121Z,97147.66
2022-08-17T04:40:56.183Z,97144.31
2022-08-17T04:43:27.150Z,97152.31
2022-08-17T04:45:57.125Z,97152.31
2022-08-17T04:48:34.764Z,97160.16
2022-08-17T04:51:06.484Z,97160.78
2022-08-17T04:53:33.659Z,97158.88
2022-08-17T04:56:00.853Z,97158.72
2022-08-17T04:58:29.522Z,97167.19
2022-08-17T05:00:56.808Z,97160.47
2022-08-17T05:03:24.115Z,97165.75
2022-08-17T05:05:51.490Z,97176.47
2022-08-17T05:08:20.371Z,97175.66
2022-08-17T05:10:48.488Z,97177.22
2022-08-17T05:13:20.208Z,97174.97
2022-08-17T05:15:52.740Z,97161.28
2022-08-17T05:18:19.972Z,97178.03
2022-08-17T05:20:47.134Z,97178.16
2022-08-17T05:23:18.446Z,97180.88
2022-08-17T05:25:48.229Z,97175.75
2022-08-17T05:28:18.002Z,97168.88
2022-08-17T05:30:48.630Z,97178.78
2022-08-17T05:33:20.103Z,97165.25
2022-08-17T05:35:49.498Z,97168.75
2022-08-17T05:38:18.700Z,97178.16
2022-08-17T05:40:46.298Z,97165.63
2022-08-17T05:43:16.189Z,97182.31
2022-08-17T05:45:55.755Z,97179.13
2022-08-17T05:48:39.571Z,97167.31
2022-08-17T05:51:29.499Z,97161.59
2022-08-17T05:54:07.213Z,97161.78
2022-08-17T05:56:56.301Z,97168.16
2022-08-17T05:59:29.911Z,97169.84
2022-08-17T06:02:05.441Z,97165.81
2022-08-17T06:04:46.858Z,97168.41
2022-08-17T06:07:20.802Z,97167.56
2022-08-17T06:09:56.957Z,97170.19
2022-08-17T06:12:36.784Z,97170.66
2022-08-17T06:15:18.089Z,97172.94
2022-08-17T06:17:45.549Z,97169.56
2022-08-17T06:20:15.854Z,97169.50
2022-08-17T06:22:47.808Z,97174.34
2022-08-17T06:25:18.530Z,97165.16
2022-08-17T06:28:04.497Z,97162.59
2022-08-17T06:30:58.563Z,97159.25
2022-08-17T06:33:32.650Z,97167.56
2022-08-17T06:36:16.326Z,97166.72
2022-08-17T06:38:52.708Z,97155.63
2022-08-17T06:41:26.301Z,97162.78
2022-08-17T06:44:05.661Z,97169.56
2022-08-17T06:46:37.289Z,97164.22
2022-08-17T06:49:14.180Z,97168.50
2022-08-17T06:51:48.587Z,97169.69
2022-08-17T06:54:23.981Z,97167.09
2022-08-17T06:56:57.144Z,97183.47
2022-08-17T06:59:47.173Z,97181.31
2022-08-17T07:02:29.166Z,97177.81
2022-08-17T07:05:09.974Z,97182.69
2022-08-17T07:07:40.148Z,97190.94
2022-08-17T07:10:09.779Z,97193.78
2022-08-17T07:12:40.791Z,97192.09
2022-08-17T07:15:12.725Z,97197.03
2022-08-17T07:17:47.294Z,97200.38
2022-08-17T07:20:18.457Z,97199.88
2022-08-17T07:23:00.141Z,97205.09
2022-08-17T07:25:29.887Z,97200.75
2022-08-17T07:27:59.289Z,97201.09
2022-08-17T07:30:29.708Z,97201.19
2022-08-17T07:33:01.495Z,97192.63
2022-08-17T07:35:40.656Z,97206.19
2022-08-17T07:38:24.156Z,97212.72
2022-08-17T07:41:01.604Z,97208.88
2022-08-17T07:43:31.234Z,97207.84
2022-08-17T07:46:05.254Z,97202.91
2022-08-17T07:48:36.078Z,97206.22
2022-08-17T07:51:16.543Z,97204.91
2022-08-17T07:53:45.088Z,97211.47
2022-08-17T07:56:34.932Z,97200.69
2022-08-17T07:59:08.662Z,97205.31
2022-08-17T08:01:39.423Z,97219.47
2022-08-17T08:04:43.172Z,97217.19
2022-08-17T08:07:24.661Z,97222.34
2022-08-17T08:10:06.010Z,97221.63
2022-08-17T08:12:36.563Z,97234.88
2022-08-17T08:15:12.706Z,97227.28
2022-08-17T08:17:50.091Z,97225.28
2022-08-17T08:20:52.763Z,97229.31
2022-08-17T08:23:15.493Z,97224.22
2022-08-17T08:26:03.101Z,97219.16
2022-08-17T08:28:38.440Z,97230.59
2022-08-17T08:31:16.352Z,97230.78
2022-08-17T08:33:49.371Z,97226.44
2022-08-17T08:37:02.041Z,97227.59
2022-08-17T08:39:24.220Z,97218.97
2022-08-17T08:41:58.623Z,97219.75
2022-08-17T08:45:01.096Z,97215.47
2022-08-17T08:47:36.432Z,97222.16
2022-08-17T08:50:30.178Z,97230.47
2022-08-17T08:53:27.368Z,97223.13
2022-08-17T08:55:59.274Z,97226.03
2022-08-17T08:58:41.297Z,97228.72
2022-08-17T09:01:20.783Z,97223.50
2022-08-17T09:04:21.355Z,97219.34
2022-08-17T09:07:01.877Z,97227.69
2022-08-17T09:09:42.496Z,97224.19
2022-08-17T09:12:17.420Z,97213.00
2022-08-17T09:14:55.490Z,97213.00
2022-08-17T09:17:32.477Z,97221.47
2022-08-17T09:20:04.532Z,97210.63
2022-08-17T09:22:36.166Z,97213.81
2022-08-17T09:25:08.939Z,97216.31
2022-08-17T09:27:48.391Z,97211.03
2022-08-17T09:30:17.227Z,97210.72
2022-08-17T09:32:46.450Z,97207.06
2022-08-17T09:35:17.635Z,97202.16
2022-08-17T09:37:55.825Z,97202.38
2022-08-17T09:40:27.068Z,97199.38
2022-08-17T09:42:59.450Z,97199.56
2022-08-17T09:45:38.811Z,97197.16
2022-08-17T09:48:11.937Z,97195.09
2022-08-17T09:50:55.500Z,97190.50
2022-08-17T09:53:32.001Z,97179.78
2022-08-17T09:56:16.080Z,97177.72
2022-08-17T09:59:02.959Z,97183.94
2022-08-17T10:01:37.381Z,97185.06
2022-08-17T10:04:20.563Z,97175.00
2022-08-17T10:06:56.419Z,97169.19
2022-08-17T10:09:39.513Z,97169.53
2022-08-17T10:12:22.172Z,97174.03
2022-08-17T10:15:10.848Z,97174.66
2022-08-17T10:17:49.013Z,97179.78
2022-08-17T10:20:22.927Z,97174.19
2022-08-17T10:22:55.039Z,97171.00
2022-08-17T10:25:27.907Z,97169.56
2022-08-17T10:28:11.738Z,97167.66
2022-08-17T10:30:55.436Z,97147.19
2022-08-17T10:33:47.724Z,97161.09
2022-08-17T10:36:20.673Z,97163.31
2022-08-17T10:38:57.680Z,97176.56
2022-08-17T10:41:29.117Z,97176.06
2022-08-17T10:44:37.923Z,97174.03
2022-08-17T10:47:03.262Z,97168.59
2022-08-17T10:49:36.067Z,97164.91
2022-08-17T10:52:22.057Z,97176.91
2022-08-17T10:55:13.217Z,97165.09
2022-08-17T10:57:43.270Z,97157.25
2022-08-17T11:00:30.308Z,97157.25
2022-08-17T11:02:58.419Z,97165.88
2022-08-17T11:05:43.534Z,97158.22
2022-08-17T11:08:47.046Z,97170.00
2022-08-17T11:11:44.017Z,97154.50
2022-08-17T11:14:23.395Z,97141.41
2022-08-17T11:17:06.527Z,97135.69
2022-08-17T11:19:51.287Z,97136.63
2022-08-17T11:23:00.694Z,97132.13
2022-08-17T11:25:39.300Z,97126.34
2022-08-17T11:28:13.034Z,97124.72
2022-08-17T11:30:43.509Z,97130.13
2022-08-17T11:33:53.111Z,97126.78
2022-08-17T11:36:41.845Z,97122.13
2022-08-17T11:39:28.640Z,97111.72
2022-08-17T11:42:04.533Z,97125.31
2022-08-17T11:44:45.401Z,97128.66
2022-08-17T11:47:20.028Z,97130.06
2022-08-17T11:50:02.595Z,97136.28
2022-08-17T11:52:38.926Z,97144.44
2022-08-17T11:55:34.111Z,97147.44
2022-08-17T11:58:01.380Z,97144.88
2022-08-17T12:00:52.187Z,97150.78
2022-08-17T12:03:41.389Z,97160.78
2022-08-17T12:06:18.128Z,97153.41
2022-08-17T12:08:52.087Z,97151.94
2022-08-17T12:11:55.159Z,97151.59
2022-08-17T12:14:29.380Z,97135.06
2022-08-17T12:17:09.303Z,97133.50
2022-08-17T12:19:38.016Z,97134.09
2022-08-17T12:22:12.931Z,97132.97
2022-08-17T12:24:50.299Z,97124.34
2022-08-17T12:28:04.121Z,97126.41
2022-08-17T12:30:14.556Z,97130.25
2022-08-17T12:32:42.202Z,97123.47
2022-08-17T12:35:20.806Z,97125.72
2022-08-17T12:37:49.697Z,97129.72
2022-08-17T12:40:20.564Z,97116.22
2022-08-17T12:42:55.689Z,97121.78
2022-08-17T12:45:27.650Z,97134.38
2022-08-17T12:48:02.505Z,97131.19
2022-08-17T12:50:30.334Z,97122.91
2022-08-17T12:53:01.984Z,97120.72
2022-08-17T12:55:35.287Z,97117.91
2022-08-17T12:58:02.831Z,97120.28
2022-08-17T13:00:33.999Z,97118.03
2022-08-17T13:03:04.357Z,97119.41
2022-08-17T13:05:33.915Z,97118.75
2022-08-17T13:08:02.386Z,97127.97
2022-08-17T13:10:33.270Z,97124.22
2022-08-17T13:13:01.839Z,97119.47
2022-08-17T13:15:34.922Z,97118.13
2022-08-17T13:18:09.011Z,97108.81
2022-08-17T13:20:37.142Z,97111.34
2022-08-17T13:23:11.870Z,97119.66
2022-08-17T13:25:39.538Z,97111.03
2022-08-17T13:28:16.926Z,97105.25
2022-08-17T13:30:45.476Z,97104.47
2022-08-17T13:33:26.067Z,97102.53
2022-08-17T13:36:10.659Z,97099.69
2022-08-17T13:38:47.206Z,97091.19
2022-08-17T13:41:29.904Z,97104.22
2022-08-17T13:43:57.120Z,97097.75
2022-08-17T13:46:29.861Z,97088.59
2022-08-17T13:49:00.112Z,97089.38
2022-08-17T13:51:31.239Z,97089.81
2022-08-17T13:54:05.413Z,97095.41
2022-08-17T13:56:57.607Z,97099.38
2022-08-17T13:59:53.146Z,97088.47
2022-08-17T14:02:28.335Z,97078.25
2022-08-17T14:04:57.108Z,97094.50
2022-08-17T14:07:31.096Z,97076.44
2022-08-17T14:10:01.008Z,97073.06
2022-08-17T14:12:32.025Z,97079.63
2022-08-17T14:14:59.243Z,97084.41
2022-08-17T14:17:28.654Z,97081.25
2022-08-17T14:19:55.982Z,97078.19
2022-08-17T14:22:26.953Z,97074.88
2022-08-17T14:24:54.179Z,97075.91
2022-08-17T14:27:21.374Z,97075.06
2022-08-17T14:29:48.891Z,97074.19
2022-08-17T14:32:20.422Z,97077.84
2022-08-17T14:34:49.192Z,97069.31
2022-08-17T14:37:16.745Z,97076.69
2022-08-17T14:39:44.329Z,97072.41
2022-08-17T14:42:12.113Z,97064.22
2022-08-17T14:44:39.811Z,97060.22
2022-08-17T14:47:07.750Z,97048.41
2022-08-17T14:49:34.933Z,97045.94
2022-08-17T14:52:04.057Z,97048.78
2022-08-17T14:54:34.332Z,97046.38
2022-08-17T14:57:23.404Z,97042.41
2022-08-17T14:59:54.499Z,97034.25
2022-08-17T15:02:30.028Z,97029.25
2022-08-17T15:05:01.974Z,97034.81
2022-08-17T15:07:31.534Z,97032.06
2022-08-17T15:10:00.410Z,97020.09
2022-08-17T15:12:32.854Z,97027.81
2022-08-17T15:15:00.870Z,97029.06
2022-08-17T15:17:44.191Z,97021.66
2022-08-17T15:20:16.271Z,97018.44
2022-08-17T15:22:46.445Z,97016.88
2022-08-17T15:25:13.989Z,97016.75
2022-08-17T15:27:41.959Z,97015.03
2022-08-17T15:30:10.582Z,97011.19
2022-08-17T15:32:40.008Z,97002.91
2022-08-17T15:35:09.615Z,97001.06
2022-08-17T15:37:38.890Z,97012.44
2022-08-17T15:40:09.870Z,97021.19
2022-08-17T15:42:37.957Z,97027.66
2022-08-17T15:45:08.056Z,97014.84
2022-08-17T15:47:35.503Z,97006.84
2022-08-17T15:50:02.810Z,97012.19
2022-08-17T15:52:29.986Z,97019.94
2022-08-17T15:54:59.465Z,97025.72
2022-08-17T15:57:28.141Z,97010.41
2022-08-17T15:59:59.077Z,97015.38
2022-08-17T16:03:45.086Z,97019.38
2022-08-17T16:05:20.563Z,97024.16
2022-08-17T16:07:47.867Z,97029.63
2022-08-17T16:10:19.035Z,97029.28
2022-08-17T16:12:49.881Z,97032.00
2022-08-17T16:15:17.853Z,97035.06
2022-08-17T16:17:45.316Z,97031.44
2022-08-17T16:20:20.170Z,97028.47
2022-08-17T16:22:50.322Z,97031.00
2022-08-17T16:25:21.713Z,97028.63
2022-08-17T16:27:51.261Z,97034.41
2022-08-17T16:30:20.357Z,97031.69
2022-08-17T16:32:49.130Z,97028.63
2022-08-17T16:35:16.685Z,97031.13
2022-08-17T16:37:45.428Z,97028.88
2022-08-17T16:40:14.636Z,97033.78
2022-08-17T16:42:42.731Z,97026.53
2022-08-17T16:45:15.716Z,97024.81
2022-08-17T16:47:43.627Z,97018.22
2022-08-17T16:50:12.510Z,97022.63
2022-08-17T16:52:40.881Z,97024.00
2022-08-17T16:55:10.267Z,97021.06
2022-08-17T16:57:47.550Z,97018.22
2022-08-17T17:00:19.539Z,97013.00
2022-08-17T17:02:48.671Z,97019.25
2022-08-17T17:05:32.272Z,97016.28
2022-08-17T17:08:03.683Z,97023.00
2022-08-17T17:10:39.082Z,97025.59
2022-08-17T17:13:12.904Z,97034.09
2022-08-17T17:15:53.904Z,97029.00
2022-08-17T17:18:26.670Z,97026.63
2022-08-17T17:20:56.325Z,97019.13
2022-08-17T17:23:39.061Z,97022.19
2022-08-17T17:26:16.362Z,97020.16
2022-08-17T17:29:00.945Z,97014.22
2022-08-17T17:31:38.120Z,97009.69
2022-08-17T17:34:10.255Z,97006.97
2022-08-17T17:36:41.562Z,97015.03
2022-08-17T17:39:13.158Z,97005.75
2022-08-17T17:41:46.463Z,97006.66
2022-08-17T17:44:19.732Z,97005.53
2022-08-17T17:46:53.010Z,96998.34
2022-08-17T17:49:20.551Z,97006.84
2022-08-17T17:52:11.046Z,97003.34
2022-08-17T17:54:52.826Z,97006.53
2022-08-17T17:57:29.532Z,97000.41
2022-08-17T18:00:02.505Z,96991.47
2022-08-17T18:02:42.283Z,97012.88
2022-08-17T18:05:18.137Z,97010.97
2022-08-17T18:07:51.675Z,97009.69
2022-08-17T18:10:30.126Z,97001.88
2022-08-17T18:13:07.418Z,96996.91
2022-08-17T18:15:40.470Z,96996.53
2022-08-17T18:18:27.318Z,97001.53
2022-08-17T18:21:00.943Z,96994.63
2022-08-17T18:23:28.740Z,96999.97
2022-08-17T18:25:57.168Z,97000.28
2022-08-17T18:28:28.022Z,96995.50
2022-08-17T18:31:11.946Z,96995.88
2022-08-17T18:33:41.874Z,96993.50
2022-08-17T18:36:09.566Z,96997.44
2022-08-17T18:38:39.227Z,96993.94
2022-08-17T18:41:19.568Z,96992.66
2022-08-17T18:44:01.520Z,96993.94
2022-08-17T18:46:32.231Z,96992.78
2022-08-17T18:49:03.121Z,96985.06
2022-08-17T18:51:41.957Z,96979.28
2022-08-17T18:54:19.571Z,96990.06
2022-08-17T18:56:53.183Z,96988.50
2022-08-17T18:59:29.034Z,96989.81
2022-08-17T19:02:27.344Z,96985.66
2022-08-17T19:05:09.227Z,96984.84
2022-08-17T19:07:39.667Z,96992.66
2022-08-17T19:10:19.832Z,96986.66
2022-08-17T19:12:51.734Z,96986.66
2022-08-17T19:15:26.703Z,96983.94
2022-08-17T19:17:57.850Z,96985.25
2022-08-17T19:20:30.898Z,96980.97
2022-08-17T19:23:10.067Z,96983.00
2022-08-17T19:25:42.713Z,96985.84
2022-08-17T19:28:22.467Z,96984.59
2022-08-17T19:30:54.911Z,96977.00
2022-08-17T19:33:22.371Z,96986.75
2022-08-17T19:36:00.322Z,96988.81
2022-08-17T19:38:40.339Z,96988.22
2022-08-17T19:41:16.260Z,96974.88
2022-08-17T19:44:17.178Z,96983.13
2022-08-17T19:46:58.375Z,96981.22
2022-08-17T19:49:41.384Z,96985.50
2022-08-17T19:52:32.979Z,96983.47
2022-08-17T19:55:05.724Z,96983.81
2022-08-17T19:57:43.687Z,96980.97
2022-08-17T20:00:15.752Z,96987.19
2022-08-17T20:02:50.048Z,96999.00
2022-08-17T20:05:21.398Z,97008.97
2022-08-17T20:07:55.353Z,97017.47
2022-08-17T20:10:40.113Z,97014.63
2022-08-17T20:13:12.212Z,97018.75
2022-08-17T20:15:41.826Z,97015.00
2022-08-17T20:18:18.163Z,97018.28
2022-08-17T20:20:56.726Z,97018.03
2022-08-17T20:23:35.330Z,97015.44
2022-08-17T20:26:10.500Z,97009.66
2022-08-17T20:28:38.269Z,97017.34
2022-08-17T20:31:40.810Z,97011.44
2022-08-17T20:34:30.971Z,97014.28
2022-08-17T20:37:08.786Z,97008.06
2022-08-17T20:39:41.912Z,97018.63
2022-08-17T20:42:27.927Z,97013.84
2022-08-17T20:44:57.623Z,97018.50
2022-08-17T20:47:28.865Z,97025.50
2022-08-17T20:50:00.874Z,97018.84
2022-08-17T20:52:52.561Z,97016.81
2022-08-17T20:55:53.397Z,97019.97
2022-08-17T20:58:43.221Z,97017.59
2022-08-17T21:01:12.515Z,97028.94
2022-08-17T21:03:52.077Z,97027.09
2022-08-17T21:06:22.726Z,97023.94
2022-08-17T21:08:54.003Z,97022.31
2022-08-17T21:11:59.952Z,97018.34
2022-08-17T21:14:41.002Z,97024.72
2022-08-17T21:17:32.617Z,97024.72
2022-08-17T21:20:11.796Z,97021.22
2022-08-17T21:22:57.210Z,97016.56
2022-08-17T21:26:02.464Z,97019.72
2022-08-17T21:29:00.529Z,97013.13
2022-08-17T21:31:34.398Z,97015.97
2022-08-17T21:34:25.428Z,97015.31
2022-08-17T21:36:52.770Z,97008.63
2022-08-17T21:39:24.000Z,97004.31
2022-08-17T21:41:58.249Z,97002.38
2022-08-17T21:44:32.421Z,97000.00
2022-08-17T21:47:11.874Z,97003.06
2022-08-17T21:49:38.967Z,96996.81
2022-08-17T21:52:07.577Z,96999.53
2022-08-17T21:54:39.322Z,96990.13
2022-08-17T21:57:14.719Z,96993.06
2022-08-17T21:59:44.130Z,96991.94
2022-08-17T22:02:19.469Z,96998.50
2022-08-17T22:04:57.138Z,96998.50
2022-08-17T22:07:35.904Z,96991.03
2022-08-17T22:10:06.562Z,96991.47
2022-08-17T22:12:33.728Z,96994.66
2022-08-17T22:15:05.156Z,97000.09
2022-08-17T22:17:34.119Z,96997.72
2022-08-17T22:20:05.680Z,96989.22
2022-08-17T22:22:36.825Z,96984.69
2022-08-17T22:25:06.684Z,96994.00
2022-08-17T22:27:50.270Z,96990.91
2022-08-17T22:30:29.705Z,96989.00
2022-08-17T22:32:57.785Z,96985.81
2022-08-17T22:35:34.648Z,96985.91
2022-08-17T22:38:29.282Z,96997.63
2022-08-17T22:41:15.722Z,97001.34
2022-08-17T22:43:44.754Z,96991.28
2022-08-17T22:46:14.208Z,96997.84
2022-08-17T22:48:47.543Z,96999.75
2022-08-17T22:51:20.435Z,96991.47
2022-08-17T22:53:50.644Z,96994.19
2022-08-17T22:56:24.657Z,96990.56
2022-08-17T22:58:58.712Z,96995.78
2022-08-17T23:01:30.775Z,96998.50
2022-08-17T23:04:00.637Z,96998.72
2022-08-17T23:06:28.991Z,97001.13
2022-08-17T23:08:56.207Z,97003.84
2022-08-17T23:11:23.760Z,96991.94
2022-08-17T23:14:11.898Z,96994.00
2022-08-17T23:16:41.613Z,96999.44
2022-08-17T23:19:09.414Z,96995.91
2022-08-17T23:21:37.369Z,96992.06
2022-08-17T23:24:06.233Z,97007.25
2022-08-17T23:26:35.794Z,97007.59
2022-08-17T23:29:03.005Z,97008.38
2022-08-17T23:31:30.636Z,97007.59
2022-08-17T23:33:59.247Z,97006.00
2022-08-17T23:36:26.768Z,97009.50
2022-08-17T23:38:54.267Z,97011.44
2022-08-17T23:41:22.671Z,97014.50
2022-08-17T23:43:52.653Z,97025.25
2022-08-17T23:46:19.864Z,97022.31
2022-08-17T23:48:47.048Z,97040.78
2022-08-17T23:51:18.786Z,97043.63
2022-08-17T23:53:48.710Z,97057.34
2022-08-17T23:56:16.327Z,97078.28
2022-08-17T23:58:44.064Z,97116.19
